createdAt,value
2022-10-02T00:02:07.140Z,99201.17
2022-10-02T00:04:43.499Z,99203.83
2022-10-02T00:07:19.017Z,99204.33
2022-10-02T00:09:56.572Z,99210.39
2022-10-02T00:12:31.347Z,99208.80
2022-10-02T00:15:04.805Z,99208.47
2022-10-02T00:17:43.417Z,99211.92
2022-10-02T00:20:18.388Z,99214.34
2022-10-02T00:22:54.755Z,99213.02
2022-10-02T00:25:34.801Z,99214.14
2022-10-02T00:28:28.006Z,99211.18
2022-10-02T00:31:18.374Z,99213.42
2022-10-02T00:34:01.878Z,99210.98
2022-10-02T00:36:47.613Z,99210.40
2022-10-02T00:39:32.506Z,99210.85
2022-10-02T00:42:38.523Z,99214.50
2022-10-02T00:45:35.226Z,99214.16
2022-10-02T00:48:19.090Z,99218.70
2022-10-02T00:51:00.472Z,99219.14
2022-10-02T00:53:43.705Z,99216.94
2022-10-02T00:56:29.263Z,99215.94
2022-10-02T00:59:17.004Z,99220.15
2022-10-02T01:01:53.817Z,99222.80
2022-10-02T01:04:31.149Z,99221.84
2022-10-02T01:07:04.373Z,99221.97
2022-10-02T01:09:37.581Z,99222.72
2022-10-02T01:12:09.489Z,99226.09
2022-10-02T01:14:42.660Z,99224.17
2022-10-02T01:17:25.829Z,99217.36
2022-10-02T01:19:57.959Z,99221.56
2022-10-02T01:22:39.824Z,99221.85
2022-10-02T01:25:11.965Z,99226.75
2022-10-02T01:27:44.447Z,99231.91
2022-10-02T01:30:19.570Z,99235.02
2022-10-02T01:32:54.600Z,99236.59
2022-10-02T01:35:31.681Z,99238.80
2022-10-02T01:38:08.923Z,99237.30
2022-10-02T01:40:42.292Z,99232.32
2022-10-02T01:43:18.526Z,99242.41
2022-10-02T01:46:03.432Z,99242.25
2022-10-02T01:48:45.383Z,99244.86
2022-10-02T01:51:40.692Z,99247.10
2022-10-02T01:54:22.638Z,99247.05
2022-10-02T01:57:03.528Z,99248.36
2022-10-02T01:59:48.352Z,99253.50
2022-10-02T02:02:31.302Z,99251.33
2022-10-02T02:05:09.995Z,99256.32
2022-10-02T02:07:48.821Z,99260.25
2022-10-02T02:10:27.810Z,99260.05
2022-10-02T02:13:05.145Z,99266.90
2022-10-02T02:15:42.059Z,99266.23
2022-10-02T02:18:22.371Z,99272.01
2022-10-02T02:20:59.200Z,99276.65
2022-10-02T02:23:35.232Z,99272.66
2022-10-02T02:26:12.466Z,99275.25
2022-10-02T02:28:49.952Z,99279.91
2022-10-02T02:31:26.613Z,99279.36
2022-10-02T02:34:02.542Z,99280.11
2022-10-02T02:36:38.847Z,99279.08
2022-10-02T02:39:14.801Z,99283.31
2022-10-02T02:41:50.252Z,99285.92
2022-10-02T02:44:27.807Z,99285.14
2022-10-02T02:47:07.140Z,99285.64
2022-10-02T02:49:46.567Z,99285.34
2022-10-02T02:52:22.490Z,99286.14
2022-10-02T02:54:58.528Z,99288.52
2022-10-02T02:57:35.356Z,99289.42
2022-10-02T03:00:09.450Z,99295.25
2022-10-02T03:02:41.284Z,99298.02
2022-10-02T03:05:18.111Z,99296.55
2022-10-02T03:07:55.049Z,99291.61
2022-10-02T03:10:37.883Z,99290.08
2022-10-02T03:13:24.363Z,99293.41
2022-10-02T03:16:11.938Z,99296.23
2022-10-02T03:18:59.403Z,99303.55
2022-10-02T03:21:39.270Z,99300.05
2022-10-02T03:24:18.293Z,99304.21
2022-10-02T03:26:56.923Z,99303.73
2022-10-02T03:29:34.101Z,99306.49
2022-10-02T03:32:08.531Z,99308.77
2022-10-02T03:34:41.378Z,99311.36
2022-10-02T03:37:13.318Z,99308.53
2022-10-02T03:39:46.280Z,99311.83
2022-10-02T03:42:20.755Z,99313.98
2022-10-02T03:44:52.550Z,99315.17
2022-10-02T03:47:24.554Z,99314.73
2022-10-02T03:49:56.386Z,99317.92
2022-10-02T03:52:29.795Z,99319.09
2022-10-02T03:55:06.685Z,99318.42
2022-10-02T03:57:38.528Z,99320.95
2022-10-02T04:00:20.409Z,99321.33
2022-10-02T04:02:57.992Z,99324.73
2022-10-02T04:05:35.427Z,99324.07
2022-10-02T04:08:18.101Z,99330.21
2022-10-02T04:10:55.431Z,99328.27
2022-10-02T04:13:35.210Z,99332.25
2022-10-02T04:16:12.914Z,99334.50
2022-10-02T04:18:56.222Z,99332.92
2022-10-02T04:21:41.789Z,99336.37
2022-10-02T04:24:22.099Z,99335.78
2022-10-02T04:27:04.654Z,99336.08
2022-10-02T04:29:41.228Z,99341.02
2022-10-02T04:32:17.824Z,99345.67
2022-10-02T04:34:49.720Z,99348.49
2022-10-02T04:37:38.856Z,99344.95
2022-10-02T04:40:24.284Z,99351.73
2022-10-02T04:43:12.131Z,99354.52
2022-10-02T04:46:05.188Z,99358.11
2022-10-02T04:48:55.354Z,99360.23
2022-10-02T04:51:41.450Z,99363.69
2022-10-02T04:54:30.761Z,99363.90
2022-10-02T04:57:20.820Z,99365.86
2022-10-02T05:00:03.606Z,99365.21
2022-10-02T05:02:44.560Z,99365.98
2022-10-02T05:05:32.044Z,99366.30
2022-10-02T05:08:23.887Z,99369.25
2022-10-02T05:11:12.391Z,99369.63
2022-10-02T05:14:02.252Z,99373.36
2022-10-02T05:16:51.720Z,99379.02
2022-10-02T05:19:43.263Z,99379.56
2022-10-02T05:22:41.869Z,99382.30
2022-10-02T05:25:36.473Z,99386.99
2022-10-02T05:28:29.587Z,99384.75
2022-10-02T05:31:14.987Z,99389.58
2022-10-02T05:34:03.566Z,99390.08
2022-10-02T05:36:50.895Z,99394.94
2022-10-02T05:39:28.300Z,99394.28
2022-10-02T05:42:07.437Z,99393.34
2022-10-02T05:44:43.327Z,99393.27
2022-10-02T05:47:20.526Z,99396.84
2022-10-02T05:49:57.018Z,99401.94
2022-10-02T05:52:37.206Z,99404.00
2022-10-02T05:55:19.929Z,99406.91
2022-10-02T05:57:56.949Z,99407.58
2022-10-02T06:00:37.233Z,99406.79
2022-10-02T06:03:18.706Z,99411.48
2022-10-02T06:05:57.725Z,99412.67
2022-10-02T06:08:35.953Z,99420.36
2022-10-02T06:11:12.889Z,99422.06
2022-10-02T06:13:50.690Z,99424.94
2022-10-02T06:16:25.375Z,99427.20
2022-10-02T06:18:59.712Z,99429.50
2022-10-02T06:21:39.563Z,99427.48
2022-10-02T06:24:19.740Z,99423.66
2022-10-02T06:27:00.812Z,99429.09
2022-10-02T06:29:41.254Z,99428.80
2022-10-02T06:32:20.252Z,99431.38
2022-10-02T06:34:53.196Z,99433.77
2022-10-02T06:37:36.795Z,99436.39
2022-10-02T06:40:42.846Z,99435.77
2022-10-02T06:43:27.315Z,99429.63
2022-10-02T06:46:10.611Z,99429.92
2022-10-02T06:48:50.281Z,99427.27
2022-10-02T06:51:29.412Z,99431.20
2022-10-02T06:54:19.298Z,99431.38
2022-10-02T06:57:08.310Z,99434.09
2022-10-02T06:59:57.237Z,99434.14
2022-10-02T07:02:41.368Z,99432.82
2022-10-02T07:05:38.458Z,99434.64
2022-10-02T07:08:17.438Z,99437.80
2022-10-02T07:10:59.671Z,99444.15
2022-10-02T07:13:46.322Z,99445.38
2022-10-02T07:16:32.071Z,99445.96
2022-10-02T07:19:36.808Z,99450.20
2022-10-02T07:22:43.829Z,99450.45
2022-10-02T07:25:37.697Z,99452.93
2022-10-02T07:28:19.210Z,99457.02
2022-10-02T07:31:01.189Z,99456.52
2022-10-02T07:33:53.204Z,99461.39
2022-10-02T07:36:39.168Z,99461.55
2022-10-02T07:39:22.833Z,99459.22
2022-10-02T07:42:09.695Z,99462.43
2022-10-02T07:45:03.018Z,99461.28
2022-10-02T07:47:56.795Z,99465.93
2022-10-02T07:50:36.527Z,99467.48
2022-10-02T07:53:18.181Z,99470.34
2022-10-02T07:55:55.919Z,99467.21
2022-10-02T07:58:35.033Z,99469.83
2022-10-02T08:01:12.795Z,99473.69
2022-10-02T08:03:50.168Z,99475.42
2022-10-02T08:06:22.139Z,99478.88
2022-10-02T08:08:57.988Z,99478.12
2022-10-02T08:11:34.179Z,99477.63
2022-10-02T08:14:20.428Z,99480.36
2022-10-02T08:16:55.575Z,99482.06
2022-10-02T08:19:34.874Z,99478.67
2022-10-02T08:22:16.388Z,99475.63
2022-10-02T08:24:55.016Z,99477.41
2022-10-02T08:27:30.391Z,99475.21
2022-10-02T08:30:06.734Z,99475.92
2022-10-02T08:32:39.729Z,99478.12
2022-10-02T08:35:15.411Z,99483.74
2022-10-02T08:38:02.685Z,99486.75
2022-10-02T08:41:16.118Z,99485.92
2022-10-02T08:44:41.505Z,99482.27
2022-10-02T08:47:49.840Z,99484.53
2022-10-02T08:50:39.092Z,99480.45
2022-10-02T08:53:46.528Z,99479.59
2022-10-02T08:56:31.500Z,99478.58
2022-10-02T08:59:35.500Z,99479.70
2022-10-02T09:02:57.947Z,99478.21
2022-10-02T09:06:09.396Z,99476.92
2022-10-02T09:09:34.115Z,99475.66
2022-10-02T09:12:31.903Z,99477.03
2022-10-02T09:15:17.731Z,99472.23
2022-10-02T09:18:00.688Z,99474.39
2022-10-02T09:20:49.195Z,99476.83
2022-10-02T09:24:04.437Z,99474.14
2022-10-02T09:26:53.262Z,99473.40
2022-10-02T09:30:14.296Z,99476.48
2022-10-02T09:33:28.161Z,99475.33
2022-10-02T09:36:25.032Z,99471.70
2022-10-02T09:39:19.811Z,99476.40
2022-10-02T09:42:27.454Z,99468.05
2022-10-02T09:45:32.513Z,99469.38
2022-10-02T09:48:30.363Z,99467.52
2022-10-02T09:51:41.958Z,99471.19
2022-10-02T09:55:00.984Z,99470.79
2022-10-02T09:58:12.778Z,99470.30
2022-10-02T10:01:08.005Z,99469.92
2022-10-02T10:04:08.546Z,99475.85
2022-10-02T10:07:06.983Z,99472.65
2022-10-02T10:10:27.943Z,99478.19
2022-10-02T10:13:53.442Z,99484.69
2022-10-02T10:17:09.286Z,99485.23
2022-10-02T10:20:22.997Z,99486.96
2022-10-02T10:23:26.254Z,99488.70
2022-10-02T10:26:37.161Z,99489.02
2022-10-02T10:29:43.333Z,99485.80
2022-10-02T10:33:01.464Z,99480.33
2022-10-02T10:36:36.383Z,99472.46
2022-10-02T10:39:33.232Z,99476.08
2022-10-02T10:42:24.272Z,99475.38
2022-10-02T10:45:18.234Z,99471.84
2022-10-02T10:48:07.801Z,99471.36
2022-10-02T10:50:50.228Z,99471.01
2022-10-02T10:53:43.549Z,99472.02
2022-10-02T10:56:42.803Z,99471.39
2022-10-02T11:00:00.209Z,99472.14
2022-10-02T11:02:54.935Z,99469.90
2022-10-02T11:06:25.362Z,99464.98
2022-10-02T11:09:34.733Z,99467.55
2022-10-02T11:12:28.377Z,99464.53
2022-10-02T11:15:19.921Z,99462.25
2022-10-02T11:18:07.975Z,99465.12
2022-10-02T11:20:57.455Z,99462.73
2022-10-02T11:23:53.537Z,99468.25
2022-10-02T11:26:46.123Z,99471.02
2022-10-02T11:29:43.795Z,99470.05
2022-10-02T11:32:46.869Z,99473.92
2022-10-02T11:35:42.380Z,99472.55
2022-10-02T11:38:32.680Z,99472.24
2022-10-02T11:41:22.859Z,99469.32
2022-10-02T11:44:15.648Z,99471.23
2022-10-02T11:47:18.157Z,99472.88
2022-10-02T11:50:29.879Z,99471.10
2022-10-02T11:53:18.770Z,99470.70
2022-10-02T11:56:03.458Z,99470.95
2022-10-02T11:58:49.914Z,99468.92
2022-10-02T12:01:28.472Z,99469.23
2022-10-02T12:04:11.972Z,99467.39
2022-10-02T12:07:05.857Z,99465.36
2022-10-02T12:09:54.784Z,99467.13
2022-10-02T12:12:40.112Z,99470.46
2022-10-02T12:15:24.572Z,99465.02
2022-10-02T12:18:11.190Z,99469.00
2022-10-02T12:21:22.810Z,99470.23
2022-10-02T12:24:20.540Z,99466.56
2022-10-02T12:27:04.137Z,99469.36
2022-10-02T12:29:47.077Z,99468.66
2022-10-02T12:32:29.498Z,99472.32
2022-10-02T12:35:18.006Z,99471.35
2022-10-02T12:37:57.717Z,99464.96
2022-10-02T12:40:39.037Z,99467.95
2022-10-02T12:43:30.833Z,99463.66
2022-10-02T12:46:40.113Z,99460.17
2022-10-02T12:49:27.855Z,99454.86
2022-10-02T12:52:28.616Z,99453.95
2022-10-02T12:55:36.317Z,99455.70
2022-10-02T12:58:18.402Z,99456.58
2022-10-02T13:01:21.093Z,99448.89
2022-10-02T13:04:57.599Z,99443.02
2022-10-02T13:07:58.365Z,99440.78
2022-10-02T13:10:36.822Z,99436.77
2022-10-02T13:13:31.830Z,99437.11
2022-10-02T13:16:13.314Z,99437.47
2022-10-02T13:19:00.788Z,99440.89
2022-10-02T13:21:43.045Z,99436.20
2022-10-02T13:24:37.278Z,99433.48
2022-10-02T13:27:22.451Z,99431.89
2022-10-02T13:30:07.485Z,99431.43
2022-10-02T13:32:45.246Z,99426.84
2022-10-02T13:35:39.820Z,99425.42
2022-10-02T13:38:25.583Z,99426.60
2022-10-02T13:41:07.811Z,99419.68
2022-10-02T13:43:58.718Z,99420.05
2022-10-02T13:46:47.410Z,99418.73
2022-10-02T13:49:28.944Z,99419.45
2022-10-02T13:52:11.774Z,99413.69
2022-10-02T13:55:08.995Z,99408.64
2022-10-02T13:57:56.717Z,99405.83
2022-10-02T14:01:02.005Z,99405.65
2022-10-02T14:03:55.720Z,99401.24
2022-10-02T14:06:32.891Z,99405.41
2022-10-02T14:09:18.718Z,99402.98
2022-10-02T14:12:13.076Z,99400.83
2022-10-02T14:15:00.728Z,99398.80
2022-10-02T14:17:45.476Z,99400.19
2022-10-02T14:20:33.015Z,99398.86
2022-10-02T14:23:22.603Z,99397.00
2022-10-02T14:26:07.398Z,99396.20
2022-10-02T14:28:59.406Z,99386.89
2022-10-02T14:32:01.680Z,99384.81
2022-10-02T14:34:49.547Z,99382.61
2022-10-02T14:37:38.766Z,99380.80
2022-10-02T14:40:16.631Z,99386.67
2022-10-02T14:43:04.050Z,99387.06
2022-10-02T14:46:17.719Z,99389.53
2022-10-02T14:49:19.196Z,99392.10
2022-10-02T14:52:06.157Z,99386.47
2022-10-02T14:54:53.237Z,99394.81
2022-10-02T14:57:47.477Z,99390.66
2022-10-02T15:00:22.179Z,99394.18
2022-10-02T15:03:11.144Z,99392.16
2022-10-02T15:05:57.193Z,99401.02
2022-10-02T15:08:33.060Z,99399.26
2022-10-02T15:11:19.278Z,99398.83
2022-10-02T15:13:56.846Z,99397.96
2022-10-02T15:17:00.050Z,99395.86
2022-10-02T15:19:40.983Z,99397.70
2022-10-02T15:22:19.984Z,99396.93
2022-10-02T15:24:58.511Z,99397.47
2022-10-02T15:27:42.911Z,99394.76
2022-10-02T15:30:21.798Z,99394.48
2022-10-02T15:33:13.237Z,99396.19
2022-10-02T15:36:07.368Z,99398.78
2022-10-02T15:39:04.990Z,99400.23
2022-10-02T15:41:44.953Z,99402.39
2022-10-02T15:44:37.721Z,99406.98
2022-10-02T15:47:22.864Z,99407.14
2022-10-02T15:50:11.081Z,99405.21
2022-10-02T15:52:55.274Z,99402.19
2022-10-02T15:55:38.904Z,99406.34
2022-10-02T15:58:31.822Z,99403.87
2022-10-02T16:01:24.421Z,99401.20
2022-10-02T16:04:02.303Z,99402.28
2022-10-02T16:06:53.725Z,99402.05
2022-10-02T16:09:44.259Z,99401.17
2022-10-02T16:12:36.762Z,99405.73
2022-10-02T16:15:19.146Z,99407.35
2022-10-02T16:18:16.191Z,99406.63
2022-10-02T16:20:58.601Z,99408.61
2022-10-02T16:23:55.518Z,99410.77
2022-10-02T16:26:42.046Z,99414.14
2022-10-02T16:29:29.757Z,99412.89
2022-10-02T16:32:15.160Z,99413.04
2022-10-02T16:35:11.304Z,99411.50
2022-10-02T16:37:47.740Z,99416.65
2022-10-02T16:40:34.340Z,99408.48
2022-10-02T16:43:40.603Z,99405.30
2022-10-02T16:46:16.984Z,99403.41
2022-10-02T16:48:57.194Z,99402.05
2022-10-02T16:51:36.726Z,99403.10
2022-10-02T16:54:19.169Z,99402.15
2022-10-02T16:56:57.964Z,99405.30
2022-10-02T16:59:34.203Z,99408.40
2022-10-02T17:02:18.130Z,99423.17
2022-10-02T17:05:03.772Z,99447.59
2022-10-02T17:07:53.047Z,99453.34
2022-10-02T17:10:34.726Z,99450.17
2022-10-02T17:13:20.135Z,99449.10
2022-10-02T17:15:59.216Z,99442.32
2022-10-02T17:18:44.558Z,99441.39
2022-10-02T17:21:22.239Z,99443.27
2022-10-02T17:24:14.380Z,99445.06
2022-10-02T17:26:51.264Z,99444.86
2022-10-02T17:29:28.713Z,99441.58
2022-10-02T17:32:01.636Z,99446.20
2022-10-02T17:34:45.768Z,99444.76
2022-10-02T17:37:47.997Z,99446.67
2022-10-02T17:40:26.494Z,99447.18
2022-10-02T17:43:06.526Z,99443.77
2022-10-02T17:45:45.655Z,99441.95
2022-10-02T17:48:41.784Z,99450.41
2022-10-02T17:51:51.743Z,99447.02
2022-10-02T17:55:07.621Z,99454.41
2022-10-02T17:57:52.062Z,99457.08
2022-10-02T18:00:26.374Z,99456.21
2022-10-02T18:03:32.019Z,99451.30
2022-10-02T18:06:17.437Z,99452.13
2022-10-02T18:09:24.375Z,99455.70
2022-10-02T18:12:13.171Z,99450.39
2022-10-02T18:15:17.073Z,99445.21
2022-10-02T18:18:02.099Z,99450.44
2022-10-02T18:20:44.627Z,99448.44
2022-10-02T18:23:33.317Z,99446.70
2022-10-02T18:26:24.584Z,99452.80
2022-10-02T18:29:18.253Z,99453.84
2022-10-02T18:32:12.401Z,99456.53
2022-10-02T18:34:59.696Z,99457.46
2022-10-02T18:37:50.287Z,99458.54
2022-10-02T18:40:28.556Z,99462.94
2022-10-02T18:43:18.623Z,99460.05
2022-10-02T18:46:01.101Z,99462.06
2022-10-02T18:48:51.023Z,99463.94
2022-10-02T18:51:54.377Z,99462.02
2022-10-02T18:54:34.579Z,99468.13
2022-10-02T18:57:25.607Z,99470.06
2022-10-02T19:00:06.682Z,99464.39
2022-10-02T19:02:54.659Z,99463.46
2022-10-02T19:05:35.542Z,99464.20
2022-10-02T19:08:18.491Z,99464.02
2022-10-02T19:10:50.292Z,99460.66
2022-10-02T19:13:28.888Z,99462.35
2022-10-02T19:16:17.319Z,99458.55
2022-10-02T19:18:49.697Z,99461.10
2022-10-02T19:21:25.179Z,99462.59
2022-10-02T19:24:05.809Z,99461.41
2022-10-02T19:26:46.133Z,99461.63
2022-10-02T19:29:29.604Z,99459.62
2022-10-02T19:32:10.435Z,99464.02
2022-10-02T19:34:43.761Z,99464.19
2022-10-02T19:37:19.414Z,99463.60
2022-10-02T19:39:54.895Z,99463.52
2022-10-02T19:42:31.057Z,99464.16
2022-10-02T19:45:06.728Z,99461.71
2022-10-02T19:47:44.941Z,99458.25
2022-10-02T19:50:24.336Z,99458.30
2022-10-02T19:52:59.768Z,99461.38
2022-10-02T19:55:35.713Z,99463.25
2022-10-02T19:58:16.649Z,99463.83
2022-10-02T20:00:50.792Z,99464.16
2022-10-02T20:03:24.313Z,99464.04
2022-10-02T20:06:01.039Z,99462.41
2022-10-02T20:08:38.389Z,99462.90
2022-10-02T20:11:17.654Z,99459.70
2022-10-02T20:13:54.510Z,99461.65
2022-10-02T20:16:47.100Z,99460.33
2022-10-02T20:19:22.352Z,99456.17
2022-10-02T20:21:56.915Z,99459.70
2022-10-02T20:24:37.415Z,99455.71
2022-10-02T20:27:13.711Z,99458.65
2022-10-02T20:29:51.002Z,99458.39
2022-10-02T20:32:27.069Z,99456.92
2022-10-02T20:35:04.444Z,99454.61
2022-10-02T20:37:37.085Z,99454.46
2022-10-02T20:40:14.576Z,99455.29
2022-10-02T20:42:55.068Z,99453.19
2022-10-02T20:45:34.252Z,99455.38
2022-10-02T20:49:03.567Z,99449.09
2022-10-02T20:52:08.762Z,99446.25
2022-10-02T20:54:54.332Z,99450.70
2022-10-02T20:58:01.446Z,99452.48
2022-10-02T21:00:44.323Z,99448.12
2022-10-02T21:03:42.991Z,99447.46
2022-10-02T21:06:51.804Z,99444.52
2022-10-02T21:09:47.541Z,99442.38
2022-10-02T21:12:55.707Z,99441.58
2022-10-02T21:16:09.639Z,99440.11
2022-10-02T21:19:20.084Z,99433.34
2022-10-02T21:22:16.816Z,99435.38
2022-10-02T21:25:32.334Z,99432.59
2022-10-02T21:28:25.819Z,99430.75
2022-10-02T21:31:12.722Z,99433.06
2022-10-02T21:33:57.344Z,99427.22
2022-10-02T21:36:37.621Z,99428.33
2022-10-02T21:39:39.799Z,99432.91
2022-10-02T21:42:47.636Z,99428.96
2022-10-02T21:45:58.710Z,99427.34
2022-10-02T21:49:04.965Z,99428.01
2022-10-02T21:52:14.291Z,99426.59
2022-10-02T21:55:21.627Z,99423.40
2022-10-02T21:58:45.816Z,99420.91
2022-10-02T22:02:08.390Z,99415.23
2022-10-02T22:05:06.859Z,99413.73
2022-10-02T22:07:48.844Z,99410.61
2022-10-02T22:10:26.717Z,99405.70
2022-10-02T22:13:15.479Z,99406.45
2022-10-02T22:16:04.342Z,99404.15
2022-10-02T22:18:46.515Z,99401.27
2022-10-02T22:21:44.599Z,99402.85
2022-10-02T22:24:29.428Z,99400.81
2022-10-02T22:27:44.214Z,99397.08
2022-10-02T22:30:27.049Z,99397.52
2022-10-02T22:33:17.852Z,99398.17
2022-10-02T22:36:14.256Z,99397.42
2022-10-02T22:38:52.308Z,99403.27
2022-10-02T22:41:31.034Z,99400.67
2022-10-02T22:44:08.654Z,99399.02
2022-10-02T22:46:50.385Z,99400.67
2022-10-02T22:49:27.508Z,99402.73
2022-10-02T22:52:09.036Z,99405.36
2022-10-02T22:54:49.779Z,99403.88
2022-10-02T22:57:32.059Z,99400.98
2022-10-02T23:00:12.903Z,99398.85
2022-10-02T23:02:51.167Z,99399.98
2022-10-02T23:05:29.261Z,99399.71
2022-10-02T23:08:08.365Z,99399.02
2022-10-02T23:10:46.760Z,99399.33
2022-10-02T23:13:26.567Z,99399.48
2022-10-02T23:16:04.888Z,99403.04
2022-10-02T23:18:43.933Z,99400.30
2022-10-02T23:21:29.987Z,99403.13
2022-10-02T23:24:08.177Z,99394.68
2022-10-02T23:26:48.095Z,99398.64
2022-10-02T23:29:31.976Z,99398.47
2022-10-02T23:32:14.427Z,99397.18
2022-10-02T23:34:59.153Z,99400.04
2022-10-02T23:37:43.264Z,99396.20
2022-10-02T23:40:44.829Z,99390.58
2022-10-02T23:43:25.259Z,99393.77
2022-10-02T23:46:02.517Z,99394.40
2022-10-02T23:48:38.110Z,99391.88
2022-10-02T23:51:21.530Z,99399.27
2022-10-02T23:54:15.424Z,99395.45
2022-10-02T23:57:09.809Z,99391.80
2022-10-02T23:59:59.862Z,99391.93
